sensor_id;sensor_type;location;lat;lon;timestamp;pressure;altitude;pressure_sealevel;temperature;humidity
68230;BME280;55048;52.220;5.160;2023-05-14T00:01:00;101578.78;;;12.67;75.61
68230;BME280;55048;52.220;5.160;2023-05-14T00:03:26;101837.69;;;14.38;76.11
68230;BME280;55048;52.220;5.160;2023-05-14T00:05:51;101987.53;;;15.25;76.49
68230;BME280;55048;52.220;5.160;2023-05-14T00:08:17;101987.31;;;15.43;76.74
68230;BME280;55048;52.220;5.160;2023-05-14T00:10:43;101989.06;;;15.49;76.44
68230;BME280;55048;52.220;5.160;2023-05-14T00:13:09;101981.56;;;15.51;76.47
68230;BME280;55048;52.220;5.160;2023-05-14T00:15:35;101979.06;;;15.45;76.59
68230;BME280;55048;52.220;5.160;2023-05-14T00:18:01;101972.06;;;15.44;76.77
68230;BME280;55048;52.220;5.160;2023-05-14T00:20:27;101969.69;;;15.47;76.42
68230;BME280;55048;52.220;5.160;2023-05-14T00:22:53;101733.41;;;13.86;76.36
68230;BME280;55048;52.220;5.160;2023-05-14T00:25:18;101778.75;;;14.21;77.09
68230;BME280;55048;52.220;5.160;2023-05-14T00:27:44;101666.06;;;13.37;77.06
68230;BME280;55048;52.220;5.160;2023-05-14T00:30:10;101678.03;;;13.46;76.75
68230;BME280;55048;52.220;5.160;2023-05-14T00:32:36;101949.53;;;15.28;77.40
68230;BME280;55048;52.220;5.160;2023-05-14T00:35:02;101775.53;;;14.19;77.16
68230;BME280;55048;52.220;5.160;2023-05-14T00:37:29;101599.06;;;12.91;76.93
68230;BME280;55048;52.220;5.160;2023-05-14T00:39:54;101771.69;;;14.15;77.10
68230;BME280;55048;52.220;5.160;2023-05-14T00:42:20;101947.44;;;15.30;77.44
68230;BME280;55048;52.220;5.160;2023-05-14T00:44:46;101932.56;;;15.11;77.28
68230;BME280;55048;52.220;5.160;2023-05-14T00:47:13;101544.88;;;12.44;77.42
68230;BME280;55048;52.220;5.160;2023-05-14T00:49:39;101682.09;;;13.37;77.34
68230;BME280;55048;52.220;5.160;2023-05-14T00:52:06;101765.00;;;13.89;78.05
68230;BME280;55048;52.220;5.160;2023-05-14T00:54:32;101938.44;;;15.08;78.68
68230;BME280;55048;52.220;5.160;2023-05-14T00:56:58;101918.97;;;14.84;78.86
68230;BME280;55048;52.220;5.160;2023-05-14T00:59:24;101742.13;;;13.81;78.22
68230;BME280;55048;52.220;5.160;2023-05-14T01:01:50;101406.06;;;11.80;78.79
68230;BME280;55048;52.220;5.160;2023-05-14T01:04:16;101595.94;;;12.71;78.86
68230;BME280;55048;52.220;5.160;2023-05-14T01:07:08;101930.22;;;14.97;79.56
68230;BME280;55048;52.220;5.160;2023-05-14T01:12:18;101887.34;;;14.69;79.81
68230;BME280;55048;52.220;5.160;2023-05-14T01:17:21;101683.59;;;13.33;79.81
68230;BME280;55048;52.220;5.160;2023-05-14T01:19:50;101870.41;;;14.51;79.90
68230;BME280;55048;52.220;5.160;2023-05-14T01:22:20;101934.06;;;14.90;79.80
68230;BME280;55048;52.220;5.160;2023-05-14T01:24:49;101870.06;;;14.36;79.81
68230;BME280;55048;52.220;5.160;2023-05-14T01:29:43;101562.97;;;12.54;79.90
68230;BME280;55048;52.220;5.160;2023-05-14T01:32:14;101623.34;;;12.78;79.99
68230;BME280;55048;52.220;5.160;2023-05-14T01:34:43;101428.97;;;11.69;79.92
68230;BME280;55048;52.220;5.160;2023-05-14T01:37:12;101525.97;;;12.34;79.75
68230;BME280;55048;52.220;5.160;2023-05-14T01:39:40;101751.66;;;13.77;79.84
68230;BME280;55048;52.220;5.160;2023-05-14T01:42:07;101923.00;;;14.86;80.18
68230;BME280;55048;52.220;5.160;2023-05-14T01:44:34;101922.56;;;14.77;80.65
68230;BME280;55048;52.220;5.160;2023-05-14T01:47:00;101481.56;;;12.04;80.46
68230;BME280;55048;52.220;5.160;2023-05-14T01:49:26;101770.59;;;13.75;81.41
68230;BME280;55048;52.220;5.160;2023-05-14T01:51:52;101775.28;;;13.45;81.30
68230;BME280;55048;52.220;5.160;2023-05-14T01:54:18;101386.03;;;11.24;80.61
68230;BME280;55048;52.220;5.160;2023-05-14T01:56:44;101465.00;;;11.72;80.75
68230;BME280;55048;52.220;5.160;2023-05-14T01:59:10;101908.28;;;14.72;81.01
68230;BME280;55048;52.220;5.160;2023-05-14T02:01:36;101901.28;;;14.71;81.04
68230;BME280;55048;52.220;5.160;2023-05-14T02:04:02;101902.09;;;14.71;80.98
68230;BME280;55048;52.220;5.160;2023-05-14T02:06:28;101597.47;;;12.55;80.87
68230;BME280;55048;52.220;5.160;2023-05-14T02:08:56;101896.75;;;14.71;80.91
68230;BME280;55048;52.220;5.160;2023-05-14T02:11:22;101901.44;;;14.64;81.43
68230;BME280;55048;52.220;5.160;2023-05-14T02:13:48;101801.38;;;14.01;81.68
68230;BME280;55048;52.220;5.160;2023-05-14T02:16:14;101898.19;;;14.62;81.81
68230;BME280;55048;52.220;5.160;2023-05-14T02:18:41;101899.78;;;14.63;81.64
68230;BME280;55048;52.220;5.160;2023-05-14T02:21:07;101580.25;;;12.39;81.48
68230;BME280;55048;52.220;5.160;2023-05-14T02:23:32;101847.06;;;14.12;82.13
68230;BME280;55048;52.220;5.160;2023-05-14T02:25:58;101718.34;;;13.44;81.93
68230;BME280;55048;52.220;5.160;2023-05-14T02:28:23;101492.88;;;11.88;82.42
68230;BME280;55048;52.220;5.160;2023-05-14T02:30:49;101577.50;;;12.46;82.72
68230;BME280;55048;52.220;5.160;2023-05-14T02:33:14;101895.28;;;14.40;83.04
68230;BME280;55048;52.220;5.160;2023-05-14T02:35:41;101359.91;;;11.03;82.46
68230;BME280;55048;52.220;5.160;2023-05-14T02:38:06;101717.31;;;13.34;82.51
68230;BME280;55048;52.220;5.160;2023-05-14T02:40:32;101759.81;;;13.59;82.45
68230;BME280;55048;52.220;5.160;2023-05-14T02:42:58;101886.09;;;14.48;82.66
68230;BME280;55048;52.220;5.160;2023-05-14T02:45:24;101890.41;;;14.49;82.35
68230;BME280;55048;52.220;5.160;2023-05-14T02:47:50;101740.91;;;13.25;82.86
68230;BME280;55048;52.220;5.160;2023-05-14T02:50:15;101690.00;;;13.20;82.71
68230;BME280;55048;52.220;5.160;2023-05-14T02:52:41;101515.53;;;11.79;82.59
68230;BME280;55048;52.220;5.160;2023-05-14T02:55:07;101515.16;;;12.17;82.62
68230;BME280;55048;52.220;5.160;2023-05-14T02:57:32;101684.63;;;13.08;82.54
68230;BME280;55048;52.220;5.160;2023-05-14T02:59:58;101663.16;;;12.80;82.83
68230;BME280;55048;52.220;5.160;2023-05-14T03:02:24;101876.91;;;14.44;82.58
68230;BME280;55048;52.220;5.160;2023-05-14T03:04:49;101355.16;;;11.05;82.57
68230;BME280;55048;52.220;5.160;2023-05-14T03:07:15;101474.63;;;11.73;82.41
68230;BME280;55048;52.220;5.160;2023-05-14T03:09:41;101393.69;;;11.02;82.97
68230;BME280;55048;52.220;5.160;2023-05-14T03:12:07;101883.91;;;14.33;83.42
68230;BME280;55048;52.220;5.160;2023-05-14T03:14:32;101885.97;;;14.31;83.57
68230;BME280;55048;52.220;5.160;2023-05-14T03:16:58;101407.47;;;11.29;83.23
68230;BME280;55048;52.220;5.160;2023-05-14T03:19:24;101569.47;;;12.34;83.55
68230;BME280;55048;52.220;5.160;2023-05-14T03:21:50;101408.19;;;11.06;83.60
68230;BME280;55048;52.220;5.160;2023-05-14T03:24:15;101722.50;;;13.17;83.69
68230;BME280;55048;52.220;5.160;2023-05-14T03:26:43;101883.19;;;14.26;83.93
68230;BME280;55048;52.220;5.160;2023-05-14T03:29:08;101405.38;;;11.01;84.15
68230;BME280;55048;52.220;5.160;2023-05-14T03:31:35;101870.31;;;14.23;84.12
68230;BME280;55048;52.220;5.160;2023-05-14T03:34:01;101839.97;;;14.06;84.47
68230;BME280;55048;52.220;5.160;2023-05-14T03:36:27;101853.22;;;14.12;83.77
68230;BME280;55048;52.220;5.160;2023-05-14T03:38:52;101810.44;;;13.89;84.16
68230;BME280;55048;52.220;5.160;2023-05-14T03:41:17;101855.78;;;14.19;84.48
68230;BME280;55048;52.220;5.160;2023-05-14T03:43:44;101861.00;;;14.25;84.54
68230;BME280;55048;52.220;5.160;2023-05-14T03:46:09;101717.22;;;12.75;84.97
68230;BME280;55048;52.220;5.160;2023-05-14T03:48:35;101681.16;;;13.08;84.70
68230;BME280;55048;52.220;5.160;2023-05-14T03:51:02;101609.38;;;12.41;85.03
68230;BME280;55048;52.220;5.160;2023-05-14T03:53:28;101605.09;;;12.51;85.07
68230;BME280;55048;52.220;5.160;2023-05-14T03:55:53;101602.47;;;12.21;84.84
68230;BME280;55048;52.220;5.160;2023-05-14T03:58:20;101705.19;;;13.19;84.88
68230;BME280;55048;52.220;5.160;2023-05-14T04:00:46;101854.72;;;14.20;84.72
68230;BME280;55048;52.220;5.160;2023-05-14T04:03:11;101841.34;;;14.08;84.67
68230;BME280;55048;52.220;5.160;2023-05-14T04:05:37;101860.63;;;14.22;84.67
68230;BME280;55048;52.220;5.160;2023-05-14T04:08:03;101827.06;;;14.02;84.75
68230;BME280;55048;52.220;5.160;2023-05-14T04:10:28;101825.34;;;13.96;84.86
68230;BME280;55048;52.220;5.160;2023-05-14T04:12:54;101866.00;;;14.22;84.71
68230;BME280;55048;52.220;5.160;2023-05-14T04:15:25;101784.44;;;13.72;84.47
68230;BME280;55048;52.220;5.160;2023-05-14T04:17:51;101862.41;;;14.28;84.25
68230;BME280;55048;52.220;5.160;2023-05-14T04:20:16;101859.13;;;14.26;84.29
68230;BME280;55048;52.220;5.160;2023-05-14T04:22:42;101858.00;;;14.10;84.83
68230;BME280;55048;52.220;5.160;2023-05-14T04:25:08;101857.66;;;14.18;84.98
68230;BME280;55048;52.220;5.160;2023-05-14T04:27:33;101843.81;;;14.10;84.86
68230;BME280;55048;52.220;5.160;2023-05-14T04:29:59;101860.78;;;14.15;85.45
68230;BME280;55048;52.220;5.160;2023-05-14T04:32:24;101832.31;;;13.97;85.29
68230;BME280;55048;52.220;5.160;2023-05-14T04:34:50;101866.69;;;14.17;85.37
68230;BME280;55048;52.220;5.160;2023-05-14T04:37:15;101847.75;;;14.07;85.14
68230;BME280;55048;52.220;5.160;2023-05-14T04:39:40;101845.53;;;14.16;84.81
68230;BME280;55048;52.220;5.160;2023-05-14T04:42:07;101858.19;;;14.32;84.75
68230;BME280;55048;52.220;5.160;2023-05-14T04:44:40;101848.41;;;14.26;84.68
68230;BME280;55048;52.220;5.160;2023-05-14T04:47:06;101867.38;;;14.36;84.42
68230;BME280;55048;52.220;5.160;2023-05-14T04:49:31;101872.16;;;14.34;85.00
68230;BME280;55048;52.220;5.160;2023-05-14T04:51:58;101855.88;;;14.24;85.07
68230;BME280;55048;52.220;5.160;2023-05-14T04:54:24;101830.09;;;14.06;85.18
68230;BME280;55048;52.220;5.160;2023-05-14T04:56:50;101845.75;;;14.26;84.83
68230;BME280;55048;52.220;5.160;2023-05-14T04:59:18;101863.03;;;14.47;84.78
68230;BME280;55048;52.220;5.160;2023-05-14T05:01:44;101838.16;;;14.35;84.87
68230;BME280;55048;52.220;5.160;2023-05-14T05:04:09;101848.84;;;14.46;84.96
68230;BME280;55048;52.220;5.160;2023-05-14T05:06:35;101859.53;;;14.58;84.74
68230;BME280;55048;52.220;5.160;2023-05-14T05:09:00;101833.25;;;14.43;84.86
68230;BME280;55048;52.220;5.160;2023-05-14T05:11:26;101842.56;;;14.52;84.99
68230;BME280;55048;52.220;5.160;2023-05-14T05:13:51;101874.53;;;14.71;85.15
68230;BME280;55048;52.220;5.160;2023-05-14T05:16:16;101855.59;;;14.61;85.32
68230;BME280;55048;52.220;5.160;2023-05-14T05:18:42;101854.19;;;14.58;85.48
68230;BME280;55048;52.220;5.160;2023-05-14T05:21:08;101863.72;;;14.66;85.10
68230;BME280;55048;52.220;5.160;2023-05-14T05:23:35;101849.09;;;14.57;85.07
68230;BME280;55048;52.220;5.160;2023-05-14T05:26:00;101848.22;;;14.68;84.95
68230;BME280;55048;52.220;5.160;2023-05-14T05:28:26;101841.84;;;14.69;85.08
68230;BME280;55048;52.220;5.160;2023-05-14T05:30:51;101858.41;;;14.83;84.72
68230;BME280;55048;52.220;5.160;2023-05-14T05:33:17;101861.84;;;14.95;84.60
68230;BME280;55048;52.220;5.160;2023-05-14T05:35:43;101854.91;;;14.82;84.73
68230;BME280;55048;52.220;5.160;2023-05-14T05:38:08;101851.41;;;14.82;85.01
68230;BME280;55048;52.220;5.160;2023-05-14T05:40:34;101868.09;;;15.00;84.74
68230;BME280;55048;52.220;5.160;2023-05-14T05:43:00;101879.88;;;14.99;84.84
68230;BME280;55048;52.220;5.160;2023-05-14T05:45:25;101865.59;;;15.11;84.64
68230;BME280;55048;52.220;5.160;2023-05-14T05:47:51;101888.97;;;15.15;84.49
68230;BME280;55048;52.220;5.160;2023-05-14T05:50:17;101852.53;;;14.97;84.24
68230;BME280;55048;52.220;5.160;2023-05-14T05:52:42;101826.84;;;14.85;84.13
68230;BME280;55048;52.220;5.160;2023-05-14T05:55:09;101862.03;;;15.05;84.38
68230;BME280;55048;52.220;5.160;2023-05-14T05:57:35;101845.81;;;15.12;84.30
68230;BME280;55048;52.220;5.160;2023-05-14T06:00:01;101871.81;;;15.45;83.77
68230;BME280;55048;52.220;5.160;2023-05-14T06:02:38;101864.50;;;15.40;83.16
68230;BME280;55048;52.220;5.160;2023-05-14T06:05:05;101866.38;;;15.40;82.81
68230;BME280;55048;52.220;5.160;2023-05-14T06:07:31;101875.06;;;15.47;83.32
68230;BME280;55048;52.220;5.160;2023-05-14T06:09:56;101871.56;;;15.46;82.98
68230;BME280;55048;52.220;5.160;2023-05-14T06:12:21;101877.25;;;15.50;83.21
68230;BME280;55048;52.220;5.160;2023-05-14T06:14:47;101866.69;;;15.60;82.46
68230;BME280;55048;52.220;5.160;2023-05-14T06:17:12;101862.66;;;15.74;82.12
68230;BME280;55048;52.220;5.160;2023-05-14T06:19:37;101862.06;;;15.89;81.73
68230;BME280;55048;52.220;5.160;2023-05-14T06:22:03;101853.31;;;15.99;81.15
68230;BME280;55048;52.220;5.160;2023-05-14T06:24:28;101872.72;;;16.23;80.43
68230;BME280;55048;52.220;5.160;2023-05-14T06:26:54;101859.66;;;16.10;79.74
68230;BME280;55048;52.220;5.160;2023-05-14T06:29:19;101868.34;;;16.17;79.51
68230;BME280;55048;52.220;5.160;2023-05-14T06:31:45;101885.75;;;16.36;79.07
68230;BME280;55048;52.220;5.160;2023-05-14T06:34:10;101855.72;;;16.17;78.70
68230;BME280;55048;52.220;5.160;2023-05-14T06:36:36;101868.66;;;16.20;78.79
68230;BME280;55048;52.220;5.160;2023-05-14T06:39:01;101886.38;;;16.21;78.68
68230;BME280;55048;52.220;5.160;2023-05-14T06:41:27;101871.53;;;16.14;78.55
68230;BME280;55048;52.220;5.160;2023-05-14T06:43:53;101856.59;;;16.01;78.63
68230;BME280;55048;52.220;5.160;2023-05-14T06:46:19;101887.13;;;16.17;78.45
68230;BME280;55048;52.220;5.160;2023-05-14T06:48:45;101876.31;;;16.12;78.69
68230;BME280;55048;52.220;5.160;2023-05-14T06:51:10;101880.03;;;16.27;78.35
68230;BME280;55048;52.220;5.160;2023-05-14T06:53:37;101871.78;;;16.34;78.22
68230;BME280;55048;52.220;5.160;2023-05-14T06:56:04;101871.91;;;16.44;77.71
68230;BME280;55048;52.220;5.160;2023-05-14T06:58:29;101860.84;;;16.63;77.05
68230;BME280;55048;52.220;5.160;2023-05-14T07:00:54;101877.81;;;16.90;76.39
68230;BME280;55048;52.220;5.160;2023-05-14T07:03:20;101866.41;;;17.05;75.48
68230;BME280;55048;52.220;5.160;2023-05-14T07:05:46;101876.41;;;17.09;74.60
68230;BME280;55048;52.220;5.160;2023-05-14T07:08:12;101854.81;;;16.99;74.05
68230;BME280;55048;52.220;5.160;2023-05-14T07:10:37;101884.91;;;17.28;73.74
68230;BME280;55048;52.220;5.160;2023-05-14T07:13:03;101862.78;;;17.16;73.19
68230;BME280;55048;52.220;5.160;2023-05-14T07:15:29;101875.53;;;17.31;72.86
68230;BME280;55048;52.220;5.160;2023-05-14T07:17:55;101852.69;;;17.33;72.29
68230;BME280;55048;52.220;5.160;2023-05-14T07:20:20;101887.88;;;17.64;72.02
68230;BME280;55048;52.220;5.160;2023-05-14T07:22:48;101890.91;;;17.73;71.63
68230;BME280;55048;52.220;5.160;2023-05-14T07:25:14;101883.47;;;17.85;71.38
68230;BME280;55048;52.220;5.160;2023-05-14T07:27:39;101888.34;;;17.88;70.77
68230;BME280;55048;52.220;5.160;2023-05-14T07:30:06;101890.75;;;17.84;70.59
68230;BME280;55048;52.220;5.160;2023-05-14T07:32:32;101897.50;;;17.87;70.28
68230;BME280;55048;52.220;5.160;2023-05-14T07:34:58;101877.16;;;17.69;70.50
68230;BME280;55048;52.220;5.160;2023-05-14T07:37:23;101886.78;;;17.60;71.51
68230;BME280;55048;52.220;5.160;2023-05-14T07:39:50;101866.66;;;17.30;71.51
68230;BME280;55048;52.220;5.160;2023-05-14T07:42:16;101889.00;;;17.36;71.63
68230;BME280;55048;52.220;5.160;2023-05-14T07:44:42;101868.22;;;17.26;71.68
68230;BME280;55048;52.220;5.160;2023-05-14T07:47:07;101880.41;;;17.39;71.55
68230;BME280;55048;52.220;5.160;2023-05-14T07:49:33;101838.34;;;17.23;71.37
68230;BME280;55048;52.220;5.160;2023-05-14T07:51:58;101857.63;;;17.47;71.39
68230;BME280;55048;52.220;5.160;2023-05-14T07:54:24;101871.75;;;17.64;71.63
68230;BME280;55048;52.220;5.160;2023-05-14T07:56:49;101846.31;;;17.45;72.07
68230;BME280;55048;52.220;5.160;2023-05-14T07:59:15;101839.38;;;17.49;71.97
68230;BME280;55048;52.220;5.160;2023-05-14T08:01:40;101864.06;;;17.78;71.47
68230;BME280;55048;52.220;5.160;2023-05-14T08:04:06;101853.25;;;18.15;71.21
68230;BME280;55048;52.220;5.160;2023-05-14T08:06:32;101830.41;;;18.28;70.37
68230;BME280;55048;52.220;5.160;2023-05-14T08:08:57;101874.97;;;18.61;69.65
68230;BME280;55048;52.220;5.160;2023-05-14T08:11:23;101860.41;;;18.62;68.78
68230;BME280;55048;52.220;5.160;2023-05-14T08:13:48;101856.13;;;18.66;68.46
68230;BME280;55048;52.220;5.160;2023-05-14T08:16:14;101855.09;;;18.93;67.73
68230;BME280;55048;52.220;5.160;2023-05-14T08:18:39;101844.88;;;18.95;67.00
68230;BME280;55048;52.220;5.160;2023-05-14T08:21:05;101849.47;;;19.09;66.79
68230;BME280;55048;52.220;5.160;2023-05-14T08:23:30;101859.19;;;19.21;66.39
68230;BME280;55048;52.220;5.160;2023-05-14T08:25:56;101844.88;;;19.15;66.30
68230;BME280;55048;52.220;5.160;2023-05-14T08:28:21;101854.63;;;19.31;66.37
68230;BME280;55048;52.220;5.160;2023-05-14T08:30:46;101865.91;;;19.44;65.02
68230;BME280;55048;52.220;5.160;2023-05-14T08:33:12;101875.66;;;19.60;64.81
68230;BME280;55048;52.220;5.160;2023-05-14T08:35:37;101847.59;;;19.51;64.68
68230;BME280;55048;52.220;5.160;2023-05-14T08:38:03;101852.19;;;19.60;64.66
68230;BME280;55048;52.220;5.160;2023-05-14T08:40:28;101865.94;;;19.33;64.99
68230;BME280;55048;52.220;5.160;2023-05-14T08:42:55;101858.38;;;19.56;65.14
68230;BME280;55048;52.220;5.160;2023-05-14T08:45:23;101836.25;;;19.69;64.49
68230;BME280;55048;52.220;5.160;2023-05-14T08:47:53;101829.47;;;19.77;63.85
68230;BME280;55048;52.220;5.160;2023-05-14T08:50:19;101844.34;;;19.74;63.76
68230;BME280;55048;52.220;5.160;2023-05-14T08:52:46;101845.97;;;19.70;64.61
68230;BME280;55048;52.220;5.160;2023-05-14T08:55:12;101843.25;;;19.70;64.64
68230;BME280;55048;52.220;5.160;2023-05-14T08:57:38;101856.22;;;19.73;64.03
68230;BME280;55048;52.220;5.160;2023-05-14T09:00:04;101838.66;;;19.76;63.47
68230;BME280;55048;52.220;5.160;2023-05-14T09:02:33;101849.66;;;20.10;63.26
68230;BME280;55048;52.220;5.160;2023-05-14T09:05:01;101818.84;;;20.11;62.96
68230;BME280;55048;52.220;5.160;2023-05-14T09:07:27;101818.50;;;20.23;62.79
68230;BME280;55048;52.220;5.160;2023-05-14T09:09:53;101800.25;;;19.99;63.67
68230;BME280;55048;52.220;5.160;2023-05-14T09:12:19;101835.47;;;20.38;63.57
68230;BME280;55048;52.220;5.160;2023-05-14T09:14:46;101838.66;;;20.51;61.87
68230;BME280;55048;52.220;5.160;2023-05-14T09:17:11;101806.28;;;20.41;61.22
68230;BME280;55048;52.220;5.160;2023-05-14T09:19:41;101832.81;;;20.33;60.94
68230;BME280;55048;52.220;5.160;2023-05-14T09:22:10;101811.38;;;20.42;60.86
68230;BME280;55048;52.220;5.160;2023-05-14T09:24:36;101827.72;;;20.76;60.37
68230;BME280;55048;52.220;5.160;2023-05-14T09:27:03;101808.88;;;20.61;59.14
68230;BME280;55048;52.220;5.160;2023-05-14T09:29:29;101818.25;;;20.74;59.29
68230;BME280;55048;52.220;5.160;2023-05-14T09:31:56;101834.44;;;20.79;59.03
68230;BME280;55048;52.220;5.160;2023-05-14T09:34:23;101816.31;;;20.84;59.18
68230;BME280;55048;52.220;5.160;2023-05-14T09:36:49;101802.81;;;20.79;58.88
68230;BME280;55048;52.220;5.160;2023-05-14T09:39:16;101821.06;;;20.98;59.07
68230;BME280;55048;52.220;5.160;2023-05-14T09:41:41;101813.00;;;20.93;58.67
68230;BME280;55048;52.220;5.160;2023-05-14T09:44:07;101811.66;;;20.90;57.71
68230;BME280;55048;52.220;5.160;2023-05-14T09:46:32;101796.28;;;20.85;58.17
68230;BME280;55048;52.220;5.160;2023-05-14T09:48:58;101809.88;;;21.09;58.10
68230;BME280;55048;52.220;5.160;2023-05-14T09:51:23;101809.00;;;21.19;57.83
68230;BME280;55048;52.220;5.160;2023-05-14T09:53:51;101795.81;;;21.12;59.01
68230;BME280;55048;52.220;5.160;2023-05-14T09:56:17;101794.22;;;21.41;58.18
68230;BME280;55048;52.220;5.160;2023-05-14T09:58:42;101810.88;;;21.53;57.25
68230;BME280;55048;52.220;5.160;2023-05-14T10:01:08;101808.31;;;21.37;58.52
68230;BME280;55048;52.220;5.160;2023-05-14T10:03:34;101746.69;;;21.00;58.42
68230;BME280;55048;52.220;5.160;2023-05-14T10:06:03;101707.72;;;20.72;58.82
68230;BME280;55048;52.220;5.160;2023-05-14T10:08:33;101814.56;;;21.62;58.68
68230;BME280;55048;52.220;5.160;2023-05-14T10:11:02;101808.69;;;21.55;57.67
68230;BME280;55048;52.220;5.160;2023-05-14T10:13:32;101802.34;;;21.88;57.65
68230;BME280;55048;52.220;5.160;2023-05-14T10:16:10;101779.25;;;21.72;57.06
68230;BME280;55048;52.220;5.160;2023-05-14T10:18:40;101781.09;;;21.77;57.05
68230;BME280;55048;52.220;5.160;2023-05-14T10:21:07;101801.06;;;22.05;56.93
68230;BME280;55048;52.220;5.160;2023-05-14T10:23:35;101786.56;;;21.96;57.34
68230;BME280;55048;52.220;5.160;2023-05-14T10:26:05;101766.63;;;21.86;57.27
68230;BME280;55048;52.220;5.160;2023-05-14T10:28:31;101793.69;;;21.86;56.20
68230;BME280;55048;52.220;5.160;2023-05-14T10:30:58;101787.66;;;21.95;55.48
68230;BME280;55048;52.220;5.160;2023-05-14T10:33:24;101794.47;;;21.92;54.52
68230;BME280;55048;52.220;5.160;2023-05-14T10:36:03;101792.78;;;21.96;54.99
68230;BME280;55048;52.220;5.160;2023-05-14T10:38:31;101794.16;;;21.94;56.26
68230;BME280;55048;52.220;5.160;2023-05-14T10:41:06;101786.47;;;22.01;55.28
68230;BME280;55048;52.220;5.160;2023-05-14T10:43:36;101782.75;;;22.21;55.14
68230;BME280;55048;52.220;5.160;2023-05-14T10:46:03;101787.09;;;22.40;54.49
68230;BME280;55048;52.220;5.160;2023-05-14T10:48:29;101768.66;;;22.56;53.51
68230;BME280;55048;52.220;5.160;2023-05-14T10:50:56;101775.84;;;22.66;53.56
68230;BME280;55048;52.220;5.160;2023-05-14T10:53:36;101780.97;;;22.86;52.62
68230;BME280;55048;52.220;5.160;2023-05-14T10:56:20;101767.66;;;22.90;53.72
68230;BME280;55048;52.220;5.160;2023-05-14T10:58:48;101782.50;;;22.92;52.39
68230;BME280;55048;52.220;5.160;2023-05-14T11:01:14;101778.63;;;22.80;52.52
68230;BME280;55048;52.220;5.160;2023-05-14T11:03:42;101773.34;;;22.70;51.92
68230;BME280;55048;52.220;5.160;2023-05-14T11:06:10;101777.75;;;22.65;51.95
68230;BME280;55048;52.220;5.160;2023-05-14T11:08:36;101775.19;;;22.74;52.12
68230;BME280;55048;52.220;5.160;2023-05-14T11:11:01;101758.84;;;22.60;52.31
68230;BME280;55048;52.220;5.160;2023-05-14T11:13:27;101756.31;;;22.50;51.69
68230;BME280;55048;52.220;5.160;2023-05-14T11:15:52;101759.66;;;22.42;51.52
68230;BME280;55048;52.220;5.160;2023-05-14T11:18:26;101757.19;;;22.46;52.61
68230;BME280;55048;52.220;5.160;2023-05-14T11:20:52;101767.00;;;22.60;52.98
68230;BME280;55048;52.220;5.160;2023-05-14T11:23:18;101745.16;;;22.52;53.20
68230;BME280;55048;52.220;5.160;2023-05-14T11:25:45;101743.47;;;22.56;52.55
68230;BME280;55048;52.220;5.160;2023-05-14T11:28:10;101749.63;;;22.61;52.77
68230;BME280;55048;52.220;5.160;2023-05-14T11:30:36;101749.75;;;22.70;51.98
68230;BME280;55048;52.220;5.160;2023-05-14T11:33:02;101729.75;;;22.66;51.72
68230;BME280;55048;52.220;5.160;2023-05-14T11:35:27;101749.06;;;22.97;52.24
68230;BME280;55048;52.220;5.160;2023-05-14T11:37:53;101724.41;;;22.61;51.59
68230;BME280;55048;52.220;5.160;2023-05-14T11:40:18;101744.69;;;22.82;52.38
68230;BME280;55048;52.220;5.160;2023-05-14T11:42:44;101735.19;;;22.99;51.34
68230;BME280;55048;52.220;5.160;2023-05-14T11:45:11;101731.13;;;23.15;50.85
68230;BME280;55048;52.220;5.160;2023-05-14T11:47:37;101729.53;;;23.14;49.99
68230;BME280;55048;52.220;5.160;2023-05-14T11:50:02;101727.53;;;23.33;49.97
68230;BME280;55048;52.220;5.160;2023-05-14T11:52:28;101729.34;;;23.52;49.93
68230;BME280;55048;52.220;5.160;2023-05-14T11:54:53;101717.78;;;23.60;49.66
68230;BME280;55048;52.220;5.160;2023-05-14T11:57:19;101722.81;;;23.53;49.24
68230;BME280;55048;52.220;5.160;2023-05-14T11:59:46;101694.44;;;23.45;49.50
68230;BME280;55048;52.220;5.160;2023-05-14T12:02:13;101688.09;;;23.50;49.58
68230;BME280;55048;52.220;5.160;2023-05-14T12:04:41;101701.78;;;23.45;49.45
68230;BME280;55048;52.220;5.160;2023-05-14T12:07:08;101709.53;;;23.51;48.75
68230;BME280;55048;52.220;5.160;2023-05-14T12:09:39;101717.84;;;23.55;48.76
68230;BME280;55048;52.220;5.160;2023-05-14T12:12:10;101718.06;;;23.31;48.94
68230;BME280;55048;52.220;5.160;2023-05-14T12:14:40;101704.22;;;23.32;49.02
68230;BME280;55048;52.220;5.160;2023-05-14T12:17:16;101709.31;;;23.34;49.31
68230;BME280;55048;52.220;5.160;2023-05-14T12:19:43;101710.31;;;23.24;49.02
68230;BME280;55048;52.220;5.160;2023-05-14T12:22:10;101703.31;;;23.23;48.56
68230;BME280;55048;52.220;5.160;2023-05-14T12:24:35;101708.31;;;23.30;48.60
68230;BME280;55048;52.220;5.160;2023-05-14T12:27:02;101715.94;;;23.14;48.65
68230;BME280;55048;52.220;5.160;2023-05-14T12:29:27;101692.81;;;23.03;49.21
68230;BME280;55048;52.220;5.160;2023-05-14T12:31:56;101691.81;;;23.12;49.09
68230;BME280;55048;52.220;5.160;2023-05-14T12:34:21;101667.50;;;23.21;48.42
68230;BME280;55048;52.220;5.160;2023-05-14T12:36:47;101690.41;;;23.56;48.62
68230;BME280;55048;52.220;5.160;2023-05-14T12:39:12;101672.63;;;23.50;48.47
68230;BME280;55048;52.220;5.160;2023-05-14T12:41:38;101683.78;;;23.35;48.63
68230;BME280;55048;52.220;5.160;2023-05-14T12:44:04;101677.44;;;23.39;49.14
68230;BME280;55048;52.220;5.160;2023-05-14T12:46:30;101685.13;;;23.65;49.08
68230;BME280;55048;52.220;5.160;2023-05-14T12:48:56;101605.38;;;23.33;48.49
68230;BME280;55048;52.220;5.160;2023-05-14T12:51:22;101690.66;;;23.96;48.39
68230;BME280;55048;52.220;5.160;2023-05-14T12:53:48;101675.13;;;23.88;48.24